sensor_id;sensor_type;location;lat;lon;timestamp;pressure;altitude;pressure_sealevel;temperature;humidity
69796;BME280;57073;45.650;9.612;2022-07-29T00:01:45;99124.59;;;24.05;48.35
69796;BME280;57073;45.650;9.612;2022-07-29T00:03:46;99117.09;;;23.97;48.68
69796;BME280;57073;45.650;9.612;2022-07-29T00:05:46;99115.91;;;23.89;49.09
69796;BME280;57073;45.650;9.612;2022-07-29T00:07:47;99104.75;;;23.85;49.27
69796;BME280;57073;45.650;9.612;2022-07-29T00:09:47;99110.25;;;23.85;49.49
69796;BME280;57073;45.650;9.612;2022-07-29T00:11:48;99101.91;;;23.77;50.27
69796;BME280;57073;45.650;9.612;2022-07-29T00:13:48;99101.34;;;23.80;49.45
69796;BME280;57073;45.650;9.612;2022-07-29T00:15:49;99100.41;;;23.84;49.68
69796;BME280;57073;45.650;9.612;2022-07-29T00:17:49;99101.84;;;23.82;50.16
69796;BME280;57073;45.650;9.612;2022-07-29T00:19:49;99103.25;;;23.93;49.74
69796;BME280;57073;45.650;9.612;2022-07-29T00:21:50;99102.41;;;23.92;50.19
69796;BME280;57073;45.650;9.612;2022-07-29T00:23:50;99107.97;;;24.01;49.59
69796;BME280;57073;45.650;9.612;2022-07-29T00:25:51;99097.59;;;23.98;49.69
69796;BME280;57073;45.650;9.612;2022-07-29T00:27:51;99091.50;;;24.01;49.53
69796;BME280;57073;45.650;9.612;2022-07-29T00:29:52;99080.56;;;24.01;49.58
69796;BME280;57073;45.650;9.612;2022-07-29T00:31:52;99083.28;;;24.01;48.99
69796;BME280;57073;45.650;9.612;2022-07-29T00:33:53;99090.25;;;24.07;49.11
69796;BME280;57073;45.650;9.612;2022-07-29T00:35:54;99084.59;;;24.04;48.97
69796;BME280;57073;45.650;9.612;2022-07-29T00:37:55;99077.69;;;24.06;48.66
69796;BME280;57073;45.650;9.612;2022-07-29T00:39:55;99089.28;;;24.03;48.55
69796;BME280;57073;45.650;9.612;2022-07-29T00:41:55;99083.16;;;24.06;48.80
69796;BME280;57073;45.650;9.612;2022-07-29T00:43:59;99089.09;;;24.00;48.88
69796;BME280;57073;45.650;9.612;2022-07-29T00:45:59;99084.41;;;24.00;48.95
69796;BME280;57073;45.650;9.612;2022-07-29T00:48:00;99088.47;;;24.03;48.91
69796;BME280;57073;45.650;9.612;2022-07-29T00:50:00;99094.63;;;24.08;49.09
69796;BME280;57073;45.650;9.612;2022-07-29T00:52:02;99089.94;;;24.09;49.02
69796;BME280;57073;45.650;9.612;2022-07-29T00:54:04;99092.97;;;23.99;49.50
69796;BME280;57073;45.650;9.612;2022-07-29T00:56:05;99088.16;;;24.04;49.07
69796;BME280;57073;45.650;9.612;2022-07-29T00:58:06;99088.47;;;24.03;48.74
69796;BME280;57073;45.650;9.612;2022-07-29T01:00:09;99085.84;;;23.98;49.12
69796;BME280;57073;45.650;9.612;2022-07-29T01:02:09;99084.75;;;23.99;48.94
69796;BME280;57073;45.650;9.612;2022-07-29T01:04:10;99082.50;;;24.01;48.99
69796;BME280;57073;45.650;9.612;2022-07-29T01:06:10;99077.63;;;23.98;48.79
69796;BME280;57073;45.650;9.612;2022-07-29T01:08:12;99070.84;;;23.95;48.69
69796;BME280;57073;45.650;9.612;2022-07-29T01:10:15;99076.47;;;23.76;49.41
69796;BME280;57073;45.650;9.612;2022-07-29T01:12:25;99066.44;;;23.71;49.33
69796;BME280;57073;45.650;9.612;2022-07-29T01:14:28;99080.56;;;23.65;49.56
69796;BME280;57073;45.650;9.612;2022-07-29T01:16:33;99080.66;;;23.60;49.68
69796;BME280;57073;45.650;9.612;2022-07-29T01:18:42;99078.34;;;23.53;49.46
69796;BME280;57073;45.650;9.612;2022-07-29T01:25:58;99084.16;;;23.51;49.70
69796;BME280;57073;45.650;9.612;2022-07-29T01:30:27;99074.91;;;23.47;49.97
69796;BME280;57073;45.650;9.612;2022-07-29T01:32:32;99068.22;;;23.53;49.86
69796;BME280;57073;45.650;9.612;2022-07-29T01:34:56;99074.38;;;23.59;49.80
69796;BME280;57073;45.650;9.612;2022-07-29T01:39:16;99065.47;;;23.53;49.76
69796;BME280;57073;45.650;9.612;2022-07-29T01:41:19;99063.16;;;23.47;49.97
69796;BME280;57073;45.650;9.612;2022-07-29T01:43:24;99073.31;;;23.46;50.05
69796;BME280;57073;45.650;9.612;2022-07-29T01:45:57;99070.38;;;23.43;50.14
69796;BME280;57073;45.650;9.612;2022-07-29T01:48:05;99070.47;;;23.51;49.99
69796;BME280;57073;45.650;9.612;2022-07-29T01:50:09;99067.16;;;23.41;50.27
69796;BME280;57073;45.650;9.612;2022-07-29T01:52:16;99057.28;;;23.40;50.19
69796;BME280;57073;45.650;9.612;2022-07-29T01:54:32;99060.84;;;23.40;50.22
69796;BME280;57073;45.650;9.612;2022-07-29T01:56:36;99057.78;;;23.42;50.21
69796;BME280;57073;45.650;9.612;2022-07-29T01:58:41;99066.69;;;23.47;50.14
69796;BME280;57073;45.650;9.612;2022-07-29T02:00:43;99066.69;;;23.47;49.99
69796;BME280;57073;45.650;9.612;2022-07-29T02:02:46;99069.75;;;23.46;49.80
69796;BME280;57073;45.650;9.612;2022-07-29T02:04:48;99068.25;;;23.40;50.08
69796;BME280;57073;45.650;9.612;2022-07-29T02:06:52;99057.31;;;23.26;50.11
69796;BME280;57073;45.650;9.612;2022-07-29T02:08:55;99054.47;;;23.31;50.12
69796;BME280;57073;45.650;9.612;2022-07-29T02:10:58;99064.91;;;23.29;49.98
69796;BME280;57073;45.650;9.612;2022-07-29T02:13:01;99062.69;;;23.31;50.11
69796;BME280;57073;45.650;9.612;2022-07-29T02:15:04;99060.25;;;23.29;49.76
69796;BME280;57073;45.650;9.612;2022-07-29T02:17:06;99062.78;;;23.26;50.06
69796;BME280;57073;45.650;9.612;2022-07-29T02:19:08;99069.50;;;23.20;49.88
69796;BME280;57073;45.650;9.612;2022-07-29T02:21:10;99068.25;;;23.26;49.56
69796;BME280;57073;45.650;9.612;2022-07-29T02:23:14;99068.41;;;23.21;49.89
69796;BME280;57073;45.650;9.612;2022-07-29T02:25:17;99067.66;;;23.15;50.07
69796;BME280;57073;45.650;9.612;2022-07-29T02:27:19;99064.31;;;23.18;49.99
69796;BME280;57073;45.650;9.612;2022-07-29T02:29:25;99066.53;;;23.02;50.86
69796;BME280;57073;45.650;9.612;2022-07-29T02:31:30;99072.34;;;23.01;50.88
69796;BME280;57073;45.650;9.612;2022-07-29T02:33:33;99065.72;;;23.02;50.72
69796;BME280;57073;45.650;9.612;2022-07-29T02:35:36;99058.97;;;22.99;51.32
69796;BME280;57073;45.650;9.612;2022-07-29T02:37:37;99056.31;;;23.08;50.90
69796;BME280;57073;45.650;9.612;2022-07-29T02:39:41;99055.91;;;23.01;51.30
69796;BME280;57073;45.650;9.612;2022-07-29T02:42:03;99054.72;;;23.07;50.77
69796;BME280;57073;45.650;9.612;2022-07-29T02:44:09;99059.78;;;23.13;50.44
69796;BME280;57073;45.650;9.612;2022-07-29T02:46:13;99057.66;;;23.10;51.15
69796;BME280;57073;45.650;9.612;2022-07-29T02:48:16;99056.00;;;23.23;50.70
69796;BME280;57073;45.650;9.612;2022-07-29T02:50:35;99059.44;;;23.29;50.43
69796;BME280;57073;45.650;9.612;2022-07-29T02:52:47;99059.63;;;23.32;50.54
69796;BME280;57073;45.650;9.612;2022-07-29T02:54:57;99063.50;;;23.31;50.43
69796;BME280;57073;45.650;9.612;2022-07-29T02:57:04;99065.72;;;23.29;50.15
69796;BME280;57073;45.650;9.612;2022-07-29T02:59:10;99066.16;;;23.23;50.28
69796;BME280;57073;45.650;9.612;2022-07-29T03:01:24;99072.44;;;23.23;50.25
69796;BME280;57073;45.650;9.612;2022-07-29T03:03:29;99073.88;;;23.21;50.66
69796;BME280;57073;45.650;9.612;2022-07-29T03:05:32;99075.28;;;23.18;50.23
69796;BME280;57073;45.650;9.612;2022-07-29T03:07:33;99082.97;;;23.02;50.46
69796;BME280;57073;45.650;9.612;2022-07-29T03:09:35;99078.84;;;23.05;50.80
69796;BME280;57073;45.650;9.612;2022-07-29T03:11:37;99075.06;;;23.01;51.09
69796;BME280;57073;45.650;9.612;2022-07-29T03:13:38;99078.13;;;23.13;50.67
69796;BME280;57073;45.650;9.612;2022-07-29T03:15:40;99091.41;;;23.20;50.43
69796;BME280;57073;45.650;9.612;2022-07-29T03:17:43;99076.72;;;23.15;50.43
69796;BME280;57073;45.650;9.612;2022-07-29T03:19:43;99085.03;;;23.10;50.33
69796;BME280;57073;45.650;9.612;2022-07-29T03:21:44;99082.16;;;23.02;50.57
69796;BME280;57073;45.650;9.612;2022-07-29T03:23:45;99087.41;;;22.84;50.92
69796;BME280;57073;45.650;9.612;2022-07-29T03:25:46;99088.53;;;22.83;51.02
69796;BME280;57073;45.650;9.612;2022-07-29T03:27:47;99092.09;;;22.84;50.87
69796;BME280;57073;45.650;9.612;2022-07-29T03:29:47;99092.09;;;22.84;51.02
69796;BME280;57073;45.650;9.612;2022-07-29T03:31:48;99084.47;;;22.81;50.96
69796;BME280;57073;45.650;9.612;2022-07-29T03:33:50;99078.63;;;22.73;51.25
69796;BME280;57073;45.650;9.612;2022-07-29T03:35:50;99086.19;;;22.76;51.38
69796;BME280;57073;45.650;9.612;2022-07-29T03:37:50;99083.06;;;22.69;51.56
69796;BME280;57073;45.650;9.612;2022-07-29T03:39:52;99086.00;;;22.73;51.59
69796;BME280;57073;45.650;9.612;2022-07-29T03:41:56;99085.69;;;22.74;51.79
69796;BME280;57073;45.650;9.612;2022-07-29T03:43:58;99094.28;;;22.68;51.34
69796;BME280;57073;45.650;9.612;2022-07-29T03:45:59;99097.44;;;22.75;51.25
69796;BME280;57073;45.650;9.612;2022-07-29T03:48:03;99102.63;;;22.76;51.47
69796;BME280;57073;45.650;9.612;2022-07-29T03:50:06;99106.28;;;22.86;50.81
69796;BME280;57073;45.650;9.612;2022-07-29T03:52:07;99108.09;;;22.76;51.34
69796;BME280;57073;45.650;9.612;2022-07-29T03:54:10;99112.66;;;22.95;51.00
69796;BME280;57073;45.650;9.612;2022-07-29T03:56:15;99112.06;;;22.98;50.60
69796;BME280;57073;45.650;9.612;2022-07-29T03:58:18;99099.94;;;23.04;50.83
69796;BME280;57073;45.650;9.612;2022-07-29T04:00:19;99099.06;;;23.04;50.67
69796;BME280;57073;45.650;9.612;2022-07-29T04:02:20;99099.81;;;23.09;50.56
69796;BME280;57073;45.650;9.612;2022-07-29T04:04:21;99109.34;;;23.12;50.95
69796;BME280;57073;45.650;9.612;2022-07-29T04:06:23;99116.44;;;23.13;50.47
69796;BME280;57073;45.650;9.612;2022-07-29T04:08:23;99106.38;;;23.22;50.36
69796;BME280;57073;45.650;9.612;2022-07-29T04:10:23;99118.28;;;23.18;50.36
69796;BME280;57073;45.650;9.612;2022-07-29T04:12:24;99113.50;;;23.23;50.22
69796;BME280;57073;45.650;9.612;2022-07-29T04:14:24;99107.72;;;23.25;49.99
69796;BME280;57073;45.650;9.612;2022-07-29T04:16:24;99108.31;;;23.22;50.20
69796;BME280;57073;45.650;9.612;2022-07-29T04:18:26;99112.69;;;23.23;50.20
69796;BME280;57073;45.650;9.612;2022-07-29T04:20:26;99104.59;;;23.18;49.78
69796;BME280;57073;45.650;9.612;2022-07-29T04:22:27;99097.38;;;23.08;50.53
69796;BME280;57073;45.650;9.612;2022-07-29T04:24:27;99100.72;;;23.19;50.36
69796;BME280;57073;45.650;9.612;2022-07-29T04:26:28;99109.97;;;23.23;50.28
69796;BME280;57073;45.650;9.612;2022-07-29T04:28:28;99099.00;;;23.23;49.82
69796;BME280;57073;45.650;9.612;2022-07-29T04:30:30;99093.72;;;23.26;49.88
69796;BME280;57073;45.650;9.612;2022-07-29T04:32:30;99095.94;;;23.38;49.40
69796;BME280;57073;45.650;9.612;2022-07-29T04:34:31;99094.91;;;23.48;49.16
69796;BME280;57073;45.650;9.612;2022-07-29T04:36:31;99094.28;;;23.51;48.98
69796;BME280;57073;45.650;9.612;2022-07-29T04:38:32;99094.19;;;23.56;48.85
69796;BME280;57073;45.650;9.612;2022-07-29T04:40:33;99105.59;;;23.72;48.62
69796;BME280;57073;45.650;9.612;2022-07-29T04:42:33;99110.47;;;23.75;48.35
69796;BME280;57073;45.650;9.612;2022-07-29T04:44:34;99120.00;;;23.91;48.83
69796;BME280;57073;45.650;9.612;2022-07-29T04:46:35;99114.38;;;24.19;47.37
69796;BME280;57073;45.650;9.612;2022-07-29T04:48:35;99119.81;;;24.33;47.40
69796;BME280;57073;45.650;9.612;2022-07-29T04:50:40;99132.06;;;24.36;47.09
69796;BME280;57073;45.650;9.612;2022-07-29T04:52:40;99126.53;;;24.49;46.13
69796;BME280;57073;45.650;9.612;2022-07-29T04:54:40;99129.91;;;24.78;45.90
69796;BME280;57073;45.650;9.612;2022-07-29T04:56:41;99135.69;;;24.67;45.48
69796;BME280;57073;45.650;9.612;2022-07-29T04:58:41;99132.81;;;24.50;45.96
69796;BME280;57073;45.650;9.612;2022-07-29T05:00:42;99137.06;;;24.34;47.05
69796;BME280;57073;45.650;9.612;2022-07-29T05:02:42;99141.13;;;24.14;47.31
69796;BME280;57073;45.650;9.612;2022-07-29T05:04:43;99137.81;;;24.25;46.87
69796;BME280;57073;45.650;9.612;2022-07-29T05:06:43;99148.03;;;24.34;47.10
69796;BME280;57073;45.650;9.612;2022-07-29T05:08:43;99145.09;;;24.53;46.82
69796;BME280;57073;45.650;9.612;2022-07-29T05:10:45;99148.72;;;24.62;46.99
69796;BME280;57073;45.650;9.612;2022-07-29T05:12:45;99154.00;;;24.58;47.72
69796;BME280;57073;45.650;9.612;2022-07-29T05:14:46;99156.38;;;24.74;47.47
69796;BME280;57073;45.650;9.612;2022-07-29T05:16:46;99155.63;;;24.82;46.77
69796;BME280;57073;45.650;9.612;2022-07-29T05:18:47;99163.34;;;25.11;46.52
69796;BME280;57073;45.650;9.612;2022-07-29T05:20:47;99170.13;;;25.14;46.94
69796;BME280;57073;45.650;9.612;2022-07-29T05:22:47;99174.50;;;25.23;46.90
69796;BME280;57073;45.650;9.612;2022-07-29T05:24:48;99171.22;;;25.44;46.89
69796;BME280;57073;45.650;9.612;2022-07-29T05:26:49;99165.91;;;25.48;46.64
69796;BME280;57073;45.650;9.612;2022-07-29T05:28:49;99164.44;;;25.50;46.24
69796;BME280;57073;45.650;9.612;2022-07-29T05:30:50;99171.53;;;25.42;47.11
69796;BME280;57073;45.650;9.612;2022-07-29T05:32:50;99171.75;;;25.55;46.22
69796;BME280;57073;45.650;9.612;2022-07-29T05:34:50;99164.50;;;25.76;46.52
69796;BME280;57073;45.650;9.612;2022-07-29T05:36:51;99160.25;;;25.61;46.50
69796;BME280;57073;45.650;9.612;2022-07-29T05:38:51;99164.56;;;26.11;45.37
69796;BME280;57073;45.650;9.612;2022-07-29T05:40:52;99164.03;;;26.53;44.53
69796;BME280;57073;45.650;9.612;2022-07-29T05:42:52;99162.75;;;26.33;45.09
69796;BME280;57073;45.650;9.612;2022-07-29T05:44:53;99162.19;;;26.83;44.29
69796;BME280;57073;45.650;9.612;2022-07-29T05:46:53;99165.28;;;26.82;44.03
69796;BME280;57073;45.650;9.612;2022-07-29T05:48:53;99165.34;;;27.03;44.04
69796;BME280;57073;45.650;9.612;2022-07-29T05:50:54;99168.66;;;27.26;42.02
69796;BME280;57073;45.650;9.612;2022-07-29T05:52:54;99167.97;;;26.90;42.10
69796;BME280;57073;45.650;9.612;2022-07-29T05:54:55;99174.22;;;27.17;42.18
69796;BME280;57073;45.650;9.612;2022-07-29T05:56:56;99168.84;;;26.82;42.00
69796;BME280;57073;45.650;9.612;2022-07-29T05:58:56;99178.03;;;27.33;41.76
69796;BME280;57073;45.650;9.612;2022-07-29T06:00:57;99175.31;;;27.63;40.50
69796;BME280;57073;45.650;9.612;2022-07-29T06:03:00;99184.31;;;27.72;41.04
69796;BME280;57073;45.650;9.612;2022-07-29T06:05:01;99181.44;;;27.90;40.32
69796;BME280;57073;45.650;9.612;2022-07-29T06:07:02;99180.97;;;27.88;40.67
69796;BME280;57073;45.650;9.612;2022-07-29T06:09:03;99179.41;;;27.78;39.36
69796;BME280;57073;45.650;9.612;2022-07-29T06:11:04;99171.84;;;27.96;39.86
69796;BME280;57073;45.650;9.612;2022-07-29T06:13:04;99166.69;;;28.16;40.39
69796;BME280;57073;45.650;9.612;2022-07-29T06:15:05;99177.44;;;28.08;39.94
69796;BME280;57073;45.650;9.612;2022-07-29T06:17:06;99173.38;;;28.27;39.16
69796;BME280;57073;45.650;9.612;2022-07-29T06:19:06;99177.97;;;28.23;39.12
69796;BME280;57073;45.650;9.612;2022-07-29T06:21:08;99170.38;;;28.20;38.67
69796;BME280;57073;45.650;9.612;2022-07-29T06:23:09;99177.72;;;28.16;38.85
69796;BME280;57073;45.650;9.612;2022-07-29T06:25:10;99179.44;;;28.20;39.13
69796;BME280;57073;45.650;9.612;2022-07-29T06:27:11;99177.47;;;28.21;38.97
69796;BME280;57073;45.650;9.612;2022-07-29T06:29:11;99184.81;;;28.17;38.57
69796;BME280;57073;45.650;9.612;2022-07-29T06:31:11;99190.38;;;27.96;38.41
69796;BME280;57073;45.650;9.612;2022-07-29T06:33:16;99185.22;;;28.06;39.14
69796;BME280;57073;45.650;9.612;2022-07-29T06:35:17;99178.91;;;28.27;38.43
69796;BME280;57073;45.650;9.612;2022-07-29T06:37:18;99178.47;;;28.58;38.24
69796;BME280;57073;45.650;9.612;2022-07-29T06:39:18;99177.00;;;28.40;38.30
69796;BME280;57073;45.650;9.612;2022-07-29T06:41:19;99181.88;;;28.22;38.00
69796;BME280;57073;45.650;9.612;2022-07-29T06:43:19;99192.31;;;28.16;38.43
69796;BME280;57073;45.650;9.612;2022-07-29T06:45:19;99185.16;;;28.15;38.35
69796;BME280;57073;45.650;9.612;2022-07-29T06:47:20;99178.06;;;28.47;38.26
69796;BME280;57073;45.650;9.612;2022-07-29T06:49:20;99186.19;;;28.65;38.20
69796;BME280;57073;45.650;9.612;2022-07-29T06:51:21;99183.03;;;28.87;37.78
69796;BME280;57073;45.650;9.612;2022-07-29T06:53:22;63708.63;;;-147.61;100.00
69796;BME280;57073;45.650;9.612;2022-07-29T06:55:23;63708.63;;;-147.61;100.00
69796;BME280;57073;45.650;9.612;2022-07-29T06:57:23;63708.63;;;-147.61;100.00
69796;BME280;57073;45.650;9.612;2022-07-29T06:59:23;63708.63;;;-147.61;100.00
69796;BME280;57073;45.650;9.612;2022-07-29T07:01:24;63708.63;;;-147.61;100.00
69796;BME280;57073;45.650;9.612;2022-07-29T07:03:25;63708.63;;;-147.61;100.00
69796;BME280;57073;45.650;9.612;2022-07-29T07:05:25;63708.63;;;-147.61;100.00
69796;BME280;57073;45.650;9.612;2022-07-29T07:07:25;63708.63;;;-147.61;100.00
69796;BME280;57073;45.650;9.612;2022-07-29T07:09:26;63708.63;;;-147.61;100.00
69796;BME280;57073;45.650;9.612;2022-07-29T07:11:26;63708.63;;;-147.61;100.00
69796;BME280;57073;45.650;9.612;2022-07-29T07:13:27;63708.63;;;-147.61;100.00
69796;BME280;57073;45.650;9.612;2022-07-29T07:15:28;63708.63;;;-147.61;100.00
69796;BME280;57073;45.650;9.612;2022-07-29T07:17:29;63708.63;;;-147.61;100.00
69796;BME280;57073;45.650;9.612;2022-07-29T07:19:29;63708.63;;;-147.61;100.00
69796;BME280;57073;45.650;9.612;2022-07-29T07:21:30;63708.63;;;-147.61;100.00
69796;BME280;57073;45.650;9.612;2022-07-29T07:23:30;63708.63;;;-147.61;100.00
69796;BME280;57073;45.650;9.612;2022-07-29T07:25:31;63708.63;;;-147.61;100.00
69796;BME280;57073;45.650;9.612;2022-07-29T07:27:31;63708.63;;;-147.61;100.00
69796;BME280;57073;45.650;9.612;2022-07-29T07:29:31;63708.63;;;-147.61;100.00
69796;BME280;57073;45.650;9.612;2022-07-29T07:31:32;63708.63;;;-147.61;100.00
69796;BME280;57073;45.650;9.612;2022-07-29T07:33:33;63708.63;;;-147.61;100.00
69796;BME280;57073;45.650;9.612;2022-07-29T07:35:33;63708.63;;;-147.61;100.00
69796;BME280;57073;45.650;9.612;2022-07-29T07:37:34;63708.63;;;-147.61;100.00
69796;BME280;57073;45.650;9.612;2022-07-29T07:39:34;63708.63;;;-147.61;100.00
69796;BME280;57073;45.650;9.612;2022-07-29T07:41:35;63708.63;;;-147.61;100.00
69796;BME280;57073;45.650;9.612;2022-07-29T07:43:35;63708.63;;;-147.61;100.00
69796;BME280;57073;45.650;9.612;2022-07-29T07:45:35;63708.63;;;-147.61;100.00
69796;BME280;57073;45.650;9.612;2022-07-29T07:47:37;63708.63;;;-147.61;100.00
69796;BME280;57073;45.650;9.612;2022-07-29T07:49:38;63708.63;;;-147.61;100.00
69796;BME280;57073;45.650;9.612;2022-07-29T07:51:38;63708.63;;;-147.61;100.00
69796;BME280;57073;45.650;9.612;2022-07-29T07:53:39;63708.63;;;-147.61;100.00
69796;BME280;57073;45.650;9.612;2022-07-29T07:55:41;63708.63;;;-147.61;100.00
69796;BME280;57073;45.650;9.612;2022-07-29T07:57:41;63708.63;;;-147.61;100.00
69796;BME280;57073;45.650;9.612;2022-07-29T07:59:42;63708.63;;;-147.61;100.00
69796;BME280;57073;45.650;9.612;2022-07-29T08:01:42;63708.63;;;-147.61;100.00
69796;BME280;57073;45.650;9.612;2022-07-29T08:03:43;63708.63;;;-147.61;100.00
69796;BME280;57073;45.650;9.612;2022-07-29T08:05:43;63708.63;;;-147.61;100.00
69796;BME280;57073;45.650;9.612;2022-07-29T08:07:46;63708.63;;;-147.61;100.00
69796;BME280;57073;45.650;9.612;2022-07-29T08:09:46;63708.63;;;-147.61;100.00
69796;BME280;57073;45.650;9.612;2022-07-29T08:11:47;63708.63;;;-147.61;100.00
69796;BME280;57073;45.650;9.612;2022-07-29T08:13:47;63708.63;;;-147.61;100.00
69796;BME280;57073;45.650;9.612;2022-07-29T08:15:48;63708.63;;;-147.61;100.00
69796;BME280;57073;45.650;9.612;2022-07-29T08:17:57;63708.63;;;-147.61;100.00
69796;BME280;57073;45.650;9.612;2022-07-29T08:19:57;63708.63;;;-147.61;100.00
69796;BME280;57073;45.650;9.612;2022-07-29T08:21:58;63708.63;;;-147.61;100.00
69796;BME280;57073;45.650;9.612;2022-07-29T08:23:58;63708.63;;;-147.61;100.00
69796;BME280;57073;45.650;9.612;2022-07-29T08:26:20;63708.63;;;-147.61;100.00
69796;BME280;57073;45.650;9.612;2022-07-29T08:28:22;63708.63;;;-147.61;100.00
69796;BME280;57073;45.650;9.612;2022-07-29T08:30:23;63708.63;;;-147.61;100.00
69796;BME280;57073;45.650;9.612;2022-07-29T08:32:23;63708.63;;;-147.61;100.00
69796;BME280;57073;45.650;9.612;2022-07-29T08:34:24;63708.63;;;-147.61;100.00
69796;BME280;57073;45.650;9.612;2022-07-29T08:36:24;63708.63;;;-147.61;100.00
69796;BME280;57073;45.650;9.612;2022-07-29T08:38:25;63708.63;;;-147.61;100.00
69796;BME280;57073;45.650;9.612;2022-07-29T08:40:26;63708.63;;;-147.61;100.00
69796;BME280;57073;45.650;9.612;2022-07-29T08:42:26;63708.63;;;-147.61;100.00
69796;BME280;57073;45.650;9.612;2022-07-29T08:44:27;63708.63;;;-147.61;100.00
69796;BME280;57073;45.650;9.612;2022-07-29T08:46:27;63708.63;;;-147.61;100.00
69796;BME280;57073;45.650;9.612;2022-07-29T08:48:28;63708.63;;;-147.61;100.00
69796;BME280;57073;45.650;9.612;2022-07-29T08:50:28;63708.63;;;-147.61;100.00
69796;BME280;57073;45.650;9.612;2022-07-29T08:52:30;63708.63;;;-147.61;100.00
69796;BME280;57073;45.650;9.612;2022-07-29T08:54:33;63708.63;;;-147.61;100.00
69796;BME280;57073;45.650;9.612;2022-07-29T08:56:34;63708.63;;;-147.61;100.00
69796;BME280;57073;45.650;9.612;2022-07-29T08:58:34;63708.63;;;-147.61;100.00
69796;BME280;57073;45.650;9.612;2022-07-29T09:00:37;63708.63;;;-147.61;100.00
69796;BME280;57073;45.650;9.612;2022-07-29T09:02:45;63708.63;;;-147.61;100.00
69796;BME280;57073;45.650;9.612;2022-07-29T09:04:48;63708.63;;;-147.61;100.00
69796;BME280;57073;45.650;9.612;2022-07-29T09:06:51;63708.63;;;-147.61;100.00
69796;BME280;57073;45.650;9.612;2022-07-29T09:08:51;63708.63;;;-147.61;100.00
69796;BME280;57073;45.650;9.612;2022-07-29T09:10:52;63708.63;;;-147.61;100.00
69796;BME280;57073;45.650;9.612;2022-07-29T09:12:56;63708.63;;;-147.61;100.00
69796;BME280;57073;45.650;9.612;2022-07-29T09:14:57;63708.63;;;-147.61;100.00
69796;BME280;57073;45.650;9.612;2022-07-29T09:16:57;63708.63;;;-147.61;100.00
69796;BME280;57073;45.650;9.612;2022-07-29T09:18:57;63708.63;;;-147.61;100.00
69796;BME280;57073;45.650;9.612;2022-07-29T09:20:58;63708.63;;;-147.61;100.00
69796;BME280;57073;45.650;9.612;2022-07-29T09:23:17;63708.63;;;-147.61;100.00
69796;BME280;57073;45.650;9.612;2022-07-29T09:25:37;63708.63;;;-147.61;100.00
69796;BME280;57073;45.650;9.612;2022-07-29T09:27:38;63708.63;;;-147.61;100.00
69796;BME280;57073;45.650;9.612;2022-07-29T09:29:39;63708.63;;;-147.61;100.00
69796;BME280;57073;45.650;9.612;2022-07-29T09:31:41;63708.63;;;-147.61;100.00
69796;BME280;57073;45.650;9.612;2022-07-29T09:33:42;63708.63;;;-147.61;100.00
69796;BME280;57073;45.650;9.612;2022-07-29T09:35:42;63708.63;;;-147.61;100.00
69796;BME280;57073;45.650;9.612;2022-07-29T09:37:43;63708.63;;;-147.61;100.00
69796;BME280;57073;45.650;9.612;2022-07-29T09:39:44;63708.63;;;-147.61;100.00
69796;BME280;57073;45.650;9.612;2022-07-29T09:41:50;63708.63;;;-147.61;100.00
69796;BME280;57073;45.650;9.612;2022-07-29T09:43:57;63708.63;;;-147.61;100.00
69796;BME280;57073;45.650;9.612;2022-07-29T09:46:10;63708.63;;;-147.61;100.00
69796;BME280;57073;45.650;9.612;2022-07-29T09:48:15;63708.63;;;-147.61;100.00
69796;BME280;57073;45.650;9.612;2022-07-29T09:50:16;63708.63;;;-147.61;100.00
69796;BME280;57073;45.650;9.612;2022-07-29T09:52:19;63708.63;;;-147.61;100.00
69796;BME280;57073;45.650;9.612;2022-07-29T09:54:27;63708.63;;;-147.61;100.00
69796;BME280;57073;45.650;9.612;2022-07-29T09:56:41;63708.63;;;-147.61;100.00
69796;BME280;57073;45.650;9.612;2022-07-29T09:58:42;63708.63;;;-147.61;100.00
69796;BME280;57073;45.650;9.612;2022-07-29T10:00:44;63708.63;;;-147.61;100.00
69796;BME280;57073;45.650;9.612;2022-07-29T10:02:46;63708.63;;;-147.61;100.00
69796;BME280;57073;45.650;9.612;2022-07-29T10:04:47;63708.63;;;-147.61;100.00
69796;BME280;57073;45.650;9.612;2022-07-29T10:07:01;63708.63;;;-147.61;100.00
69796;BME280;57073;45.650;9.612;2022-07-29T10:09:10;63708.63;;;-147.61;100.00
69796;BME280;57073;45.650;9.612;2022-07-29T10:11:15;63708.63;;;-147.61;100.00
69796;BME280;57073;45.650;9.612;2022-07-29T10:13:16;63708.63;;;-147.61;100.00
69796;BME280;57073;45.650;9.612;2022-07-29T10:15:17;63708.63;;;-147.61;100.00
69796;BME280;57073;45.650;9.612;2022-07-29T10:17:18;63708.63;;;-147.61;100.00
69796;BME280;57073;45.650;9.612;2022-07-29T10:19:19;63708.63;;;-147.61;100.00
69796;BME280;57073;45.650;9.612;2022-07-29T10:21:20;63708.63;;;-147.61;100.00
69796;BME280;57073;45.650;9.612;2022-07-29T10:23:21;63708.63;;;-147.61;100.00
69796;BME280;57073;45.650;9.612;2022-07-29T10:25:24;63708.63;;;-147.61;100.00
69796;BME280;57073;45.650;9.612;2022-07-29T10:27:25;63708.63;;;-147.61;100.00
69796;BME280;57073;45.650;9.612;2022-07-29T10:29:25;63708.63;;;-147.61;100.00
69796;BME280;57073;45.650;9.612;2022-07-29T10:31:30;63708.63;;;-147.61;100.00
69796;BME280;57073;45.650;9.612;2022-07-29T10:40:43;63708.63;;;-147.61;100.00
69796;BME280;57073;45.650;9.612;2022-07-29T10:43:17;63708.63;;;-147.61;100.00
69796;BME280;57073;45.650;9.612;2022-07-29T10:45:19;63708.63;;;-147.61;100.00
69796;BME280;57073;45.650;9.612;2022-07-29T10:47:24;63708.63;;;-147.61;100.00
69796;BME280;57073;45.650;9.612;2022-07-29T10:49:26;63708.63;;;-147.61;100.00
69796;BME280;57073;45.650;9.612;2022-07-29T10:53:51;63708.63;;;-147.61;100.00
69796;BME280;57073;45.650;9.612;2022-07-29T10:55:53;63708.63;;;-147.61;100.00
69796;BME280;57073;45.650;9.612;2022-07-29T10:58:12;63708.63;;;-147.61;100.00